Ashford, Alabama
Current Conditions -  °F | °C
As of 6:53 AM on Sunday 23 Nov 2014 (Local Time) from KDHN Reporting Station
Haze Haze  
Wind Chill: 62°   Ceiling: 300
Heat Index: 62°   Visibility: 2mi
Dew Point: 61°   Wind: 9mph
Humidity: 96%   Direction: 90°E
Pressure: 29.92"   Gusts: NA
Location:  31.18°N, 85.24°W
Report Text: KDHN 231253Z AUTO 09008KT 2SM BR OVC003 17/16 A2992 RMK AO2 RAB1154E47 SLP129 P0000 T01670161
Loading
Personal Weather Stations






























Interactive Weather Map New forecast layout! Learn more

10-Day Weather Forecast

Advertisements
Track Severe Weather on mobile